Decoded Metar for KCKM ( in ) (IATA:) | Meteo·Mobile Aviation Weather
aviador You're here:

KCKM Decoded Metar

in
Report Time2019-04-21 00:15:00
UTC Time2019-04-21 00:28:23
Flight Rules vfr VFR
Wind250° at 03 kt
W.Decomp.*RWY 18: 1.0 kt HW 2.8 kt RCW
Visibility9999 m
Phenomena:N/A
Clouds:N/A
Expected CloudBase > 5,200 ft AGL from Temp-Dew spread
CeilingNone
Temp20°C
Dew Point07°C (43% RH)
AAT18.2°C
QNH1015 hPa
Raw Report
KCKM 210015Z AUTO 25003KT 10SM CLR 20/07 A2996 RMK A01=

Extra information for KCKM:More info

Social comments